Ivanovo, Russia
Current Conditions -  °F | °C
As of 9:30 PM on Sunday 23 Nov 2014 (Local Time) from UUDL Reporting Station
Overcast Overcast  
Wind Chill: 21°   Ceiling: 1200
Heat Index: 27°   Visibility: 6mi
Dew Point: 21°   Wind: 4mph
Humidity: 80%   Direction: 90°E
Pressure: 30.62"   Gusts: NA
Location:  57.01°N, 40.99°E
Report Text: UUDL 231830Z 09002MPS 9999 OVC012 M03/M06 Q1037 NOSIG RMKQFE769 23000060
Loading
Personal Weather Stations






























Interactive Weather Map New forecast layout! Learn more

10-Day Weather Forecast

Advertisements
Track Severe Weather on mobile